Time;durP1;ratioP1;P1;durP2;ratioP2;P2;SDS_P1;SDS_P2;PMS_P1;PMS_P2;Temp;Humidity;BMP_temperature;BMP_pressure;BME280_temperature;BME280_humidity;BME280_pressure;Samples;Min_cycle;Max_cycle;Signal;HPM_P1;HPM_P2
2023/11/29 00:01:20;;;;;;;;;66.00;49.50;;;;;-143.90;100.00;76065.44;4832746;28;102723;-75
2023/11/29 00:03:47;;;;;;;;;61.25;45.00;;;;;-143.90;100.00;76061.31;4835442;28;101960;-74
2023/11/29 00:06:13;;;;;;;;;61.75;47.00;;;;;-143.90;100.00;76063.38;4829226;28;101724;-74
2023/11/29 00:08:40;;;;;;;;;70.25;50.00;;;;;-143.90;100.00;76063.38;4827398;28;103726;-73
2023/11/29 00:11:07;;;;;;;;;63.50;47.00;;;;;-143.90;100.00;76053.03;4839925;28;101984;-73
2023/11/29 00:13:34;;;;;;;;;51.75;41.00;;;;;-143.90;100.00;76048.88;4823397;28;105525;-73
2023/11/29 00:16:02;;;;;;;;;65.00;50.00;;;;;-143.90;100.00;76050.97;4827057;28;102391;-74
2023/11/29 00:18:28;;;;;;;;;67.00;50.50;;;;;-143.90;100.00;76069.56;4833695;28;103617;-73
2023/11/29 00:20:59;;;;;;;;;55.00;39.50;;;;;-143.90;100.00;76069.56;4832739;28;102272;-73
2023/11/29 00:23:26;;;;;;;;;53.25;44.50;;;;;-143.90;100.00;76077.84;4827724;28;102079;-73
2023/11/29 00:25:52;;;;;;;;;67.00;48.00;;;;;-143.90;100.00;76096.44;4837519;28;102723;-74
2023/11/29 00:28:20;;;;;;;;;51.67;40.33;;;;;-143.90;100.00;76077.84;4836367;28;104080;-75
2023/11/29 00:30:47;;;;;;;;;50.50;43.75;;;;;-143.90;100.00;76098.53;4830110;28;101900;-74
2023/11/29 00:33:13;;;;;;;;;66.33;46.67;;;;;-143.90;100.00;76108.84;4834228;28;101909;-74
2023/11/29 00:35:40;;;;;;;;;62.00;46.25;;;;;-143.90;100.00;76119.19;4837032;28;102232;-72
2023/11/29 00:38:07;;;;;;;;;40.75;28.50;;;;;-143.90;100.00;76110.94;4830948;28;103445;-74
2023/11/29 00:40:34;;;;;;;;;57.75;37.50;;;;;-143.90;100.00;76108.84;4830266;28;101861;-73
2023/11/29 00:43:00;;;;;;;;;49.75;41.50;;;;;-143.90;100.00;76110.94;4836339;28;102185;-73
2023/11/29 00:45:36;;;;;;;;;49.50;35.50;;;;;-143.90;100.00;76113.00;4826125;28;102118;-73
2023/11/29 00:48:03;;;;;;;;;45.50;37.00;;;;;-143.90;100.00;76115.06;4827787;28;103517;-73
2023/11/29 00:50:30;;;;;;;;;54.50;42.75;;;;;-143.90;100.00;76113.00;4831689;28;106602;-72
2023/11/29 00:52:56;;;;;;;;;58.00;39.50;;;;;-143.90;100.00;76133.69;4826648;28;101990;-73
2023/11/29 00:55:23;;;;;;;;;57.00;38.75;;;;;-143.90;100.00;76141.94;4829681;28;102508;-73
2023/11/29 00:58:00;;;;;;;;;46.00;40.00;;;;;-143.90;100.00;76127.47;4829857;28;103617;-72
2023/11/29 01:00:28;;;;;;;;;35.00;28.67;;;;;-143.90;100.00;76113.00;4823511;28;101832;-73
2023/11/29 01:02:56;;;;;;;;;36.00;31.00;;;;;-143.90;100.00;76119.19;4830343;28;102539;-73
2023/11/29 01:05:25;;;;;;;;;39.33;32.00;;;;;-143.90;100.00;76123.34;4822785;28;102192;-73
2023/11/29 01:07:52;;;;;;;;;54.75;38.50;;;;;-143.90;100.00;76139.88;4824114;28;102605;-73
2023/11/29 01:10:18;;;;;;;;;46.75;39.25;;;;;-143.90;100.00;76144.00;4830880;28;101856;-73
2023/11/29 01:12:49;;;;;;;;;55.50;40.25;;;;;-143.90;100.00;76154.34;4828682;28;101839;-74
2023/11/29 01:15:16;;;;;;;;;50.00;39.00;;;;;-143.90;100.00;76156.41;4834650;28;103081;-73
2023/11/29 01:17:43;;;;;;;;;46.00;36.50;;;;;-143.90;100.00;76160.56;4835707;28;103584;-73
2023/11/29 01:20:12;;;;;;;;;53.25;43.50;;;;;-143.90;100.00;76172.97;4823850;28;105520;-73
2023/11/29 01:22:39;;;;;;;;;42.50;35.50;;;;;-143.90;100.00;76177.09;4828268;28;102083;-72
2023/11/29 01:25:06;;;;;;;;;48.75;34.75;;;;;-143.90;100.00;76164.69;4830999;28;102087;-74
2023/11/29 01:27:32;;;;;;;;;36.00;27.67;;;;;-143.90;100.00;76166.75;4830423;28;103910;-72
2023/11/29 01:29:59;;;;;;;;;49.25;40.25;;;;;-143.90;100.00;76181.25;4830366;28;101947;-73
2023/11/29 01:32:26;;;;;;;;;54.50;38.50;;;;;-143.90;100.00;76191.56;4822389;28;101729;-73
2023/11/29 01:34:52;;;;;;;;;48.00;38.75;;;;;-143.90;100.00;76197.78;4831631;28;102074;-73
2023/11/29 01:37:19;;;;;;;;;54.00;44.00;;;;;-143.90;100.00;76208.13;4823867;28;103975;-73
2023/11/29 01:39:48;;;;;;;;;51.50;36.00;;;;;-143.90;100.00;76203.97;4825326;28;101904;-73
2023/11/29 01:42:15;;;;;;;;;48.50;37.75;;;;;-143.90;100.00;76197.78;4830741;28;103641;-73
2023/11/29 01:44:41;;;;;;;;;44.00;36.75;;;;;-143.90;100.00;76197.78;4827150;28;102155;-73
2023/11/29 01:47:12;;;;;;;;;50.25;39.75;;;;;-143.90;100.00;76201.91;4830125;28;103519;-73
2023/11/29 01:49:40;;;;;;;;;33.00;29.50;;;;;-143.90;100.00;76197.78;4832953;28;101802;-73
2023/11/29 01:52:08;;;;;;;;;46.75;33.00;;;;;-143.90;100.00;76206.06;4829318;28;101746;-73
2023/11/29 01:54:35;;;;;;;;;50.00;41.75;;;;;-143.90;100.00;76212.25;4832944;28;102231;-73
2023/11/29 01:57:02;;;;;;;;;67.75;43.75;;;;;-143.90;100.00;76214.31;4825919;28;103447;-73
2023/11/29 01:59:29;;;;;;;;;45.25;36.00;;;;;-143.90;100.00;76214.31;4829467;28;103183;-73
2023/11/29 02:01:56;;;;;;;;;40.50;30.25;;;;;-143.90;100.00;76226.72;4822972;28;102258;-72
2023/11/29 02:04:22;;;;;;;;;57.00;46.00;;;;;-143.90;100.00;76243.28;4834324;28;101969;-73
2023/11/29 02:06:49;;;;;;;;;68.25;47.75;;;;;-143.90;100.00;76251.53;4822660;28;103442;-73
2023/11/29 02:09:16;;;;;;;;;60.00;45.75;;;;;-143.90;100.00;76259.81;4839298;28;102451;-73
2023/11/29 02:11:44;;;;;;;;;53.50;44.50;;;;;-143.90;100.00;76251.53;4837282;28;102163;-73
2023/11/29 02:14:11;;;;;;;;;52.00;42.50;;;;;-143.90;100.00;76259.81;4833024;28;103017;-72
2023/11/29 02:16:37;;;;;;;;;47.50;42.25;;;;;-143.90;100.00;76249.47;4833596;28;108006;-73
2023/11/29 02:19:04;;;;;;;;;51.00;42.00;;;;;-143.90;100.00;76247.41;4828482;28;101863;-73
2023/11/29 02:21:31;;;;;;;;;60.25;45.25;;;;;-143.90;100.00;76253.63;4834336;28;102419;-73
2023/11/29 02:24:04;;;;;;;;;61.75;42.50;;;;;-143.90;100.00;76263.97;4825138;28;102908;-73
2023/11/29 02:26:31;;;;;;;;;60.75;40.50;;;;;-143.90;100.00;76270.16;4842906;28;103515;-73
2023/11/29 02:28:58;;;;;;;;;42.75;40.25;;;;;-143.90;100.00;76251.53;4826247;28;103137;-72
2023/11/29 02:31:24;;;;;;;;;51.50;41.75;;;;;-143.90;100.00;76259.81;4821805;28;101676;-72
2023/11/29 02:33:51;;;;;;;;;52.75;36.00;;;;;-143.90;100.00;76257.75;4831963;28;103148;-72
2023/11/29 02:36:18;;;;;;;;;63.25;47.00;;;;;-143.90;100.00;76276.38;4827243;28;103423;-72
2023/11/29 02:38:44;;;;;;;;;59.00;43.50;;;;;-143.90;100.00;76278.44;4826306;28;101880;-73
2023/11/29 02:41:11;;;;;;;;;71.75;55.50;;;;;-143.90;100.00;76301.19;4833277;28;102111;-72
2023/11/29 02:43:38;;;;;;;;;57.50;48.25;;;;;-143.90;100.00;76297.03;4831017;28;101864;-72
2023/11/29 02:46:04;;;;;;;;;71.50;49.00;;;;;-143.90;100.00;76301.19;4831376;28;103710;-72
2023/11/29 02:48:31;;;;;;;;;55.00;44.00;;;;;-143.90;100.00;76305.31;4837727;28;103327;-72
2023/11/29 02:50:58;;;;;;;;;78.50;52.00;;;;;-143.90;100.00;76315.66;4827672;28;102090;-72
2023/11/29 02:53:25;;;;;;;;;60.50;48.00;;;;;-143.90;100.00;76315.66;4835791;28;101694;-72
2023/11/29 02:55:52;;;;;;;;;53.50;45.00;;;;;-143.90;100.00;76307.38;4831322;28;103619;-72
2023/11/29 02:58:18;;;;;;;;;60.75;44.00;;;;;-143.90;100.00;76303.25;4830059;28;101916;-72
2023/11/29 03:00:45;;;;;;;;;69.75;47.50;;;;;-143.90;100.00;76328.06;4826430;28;102017;-72
2023/11/29 03:03:12;;;;;;;;;55.00;39.00;;;;;-143.90;100.00;76330.13;4835917;28;102012;-72
2023/11/29 03:05:38;;;;;;;;;44.75;40.00;;;;;-143.90;100.00;76340.47;4847095;28;103404;-73
2023/11/29 03:08:07;;;;;;;;;69.25;48.75;;;;;-143.90;100.00;76367.34;4836755;28;102366;-72
2023/11/29 03:10:34;;;;;;;;;64.75;48.75;;;;;-143.90;100.00;76373.56;4827604;28;101647;-72
2023/11/29 03:13:01;;;;;;;;;58.25;43.75;;;;;-143.90;100.00;76371.50;4830185;28;101909;-73
2023/11/29 03:15:28;;;;;;;;;50.25;40.25;;;;;-143.90;100.00;76373.56;4832756;28;103596;-72
2023/11/29 03:17:55;;;;;;;;;67.50;49.50;;;;;-143.90;100.00;76373.56;4829752;28;102063;-73
2023/11/29 03:20:21;;;;;;;;;58.25;46.00;;;;;-143.90;100.00;76371.50;4828746;28;101863;-74
2023/11/29 03:22:48;;;;;;;;;65.25;45.25;;;;;-143.90;100.00;76371.50;4840883;28;102170;-73
2023/11/29 03:25:15;;;;;;;;;61.75;44.50;;;;;-143.90;100.00;76361.16;4833067;28;103385;-72
2023/11/29 03:27:41;;;;;;;;;67.75;45.25;;;;;-143.90;100.00;76369.41;4834422;28;102280;-72
2023/11/29 03:30:08;;;;;;;;;69.75;51.50;;;;;-143.90;100.00;76375.63;4832787;28;101617;-72
2023/11/29 03:32:35;;;;;;;;;66.75;50.50;;;;;-143.90;100.00;76375.63;4834071;28;102512;-71
2023/11/29 03:35:02;;;;;;;;;69.00;51.25;;;;;-143.90;100.00;76375.63;4832340;28;103606;-74
2023/11/29 03:37:29;;;;;;;;;33.00;32.00;;;;;-143.90;100.00;76383.91;4839849;28;102258;-71
2023/11/29 03:39:55;;;;;;;;;72.50;55.00;;;;;-143.90;100.00;76392.16;4831941;28;101563;-73
2023/11/29 03:42:22;;;;;;;;;74.00;51.75;;;;;-143.90;100.00;76377.69;4850702;28;102839;-73
2023/11/29 03:44:49;;;;;;;;;66.50;45.75;;;;;-143.90;100.00;76369.41;4834872;28;103572;-73
2023/11/29 03:47:15;;;;;;;;;54.00;43.25;;;;;-143.90;100.00;76373.56;4831307;28;102085;-72
2023/11/29 03:49:42;;;;;;;;;51.25;36.50;;;;;-143.90;100.00;76375.63;4835957;28;102097;-73
2023/11/29 03:52:09;;;;;;;;;58.50;45.50;;;;;-143.90;100.00;76383.91;4833072;28;102320;-73
2023/11/29 03:54:36;;;;;;;;;60.75;44.25;;;;;-143.90;100.00;76379.75;4827578;28;103365;-73
2023/11/29 03:57:03;;;;;;;;;64.00;46.25;;;;;-143.90;100.00;76390.09;4827370;28;101946;-73
2023/11/29 03:59:31;;;;;;;;;47.75;35.50;;;;;-143.90;100.00;76394.25;4827078;28;103008;-73
2023/11/29 04:01:57;;;;;;;;;48.25;34.75;;;;;-143.90;100.00;76379.75;4832382;28;101801;-73
2023/11/29 04:04:24;;;;;;;;;43.50;34.00;;;;;-143.90;100.00;76392.16;4826164;28;103331;-72
2023/11/29 04:06:51;;;;;;;;;47.00;37.50;;;;;-143.90;100.00;76398.38;4828686;28;102185;-73
2023/11/29 04:09:17;;;;;;;;;63.50;45.00;;;;;-143.90;100.00;76421.13;4822485;28;102300;-73
2023/11/29 04:11:46;;;;;;;;;60.50;39.50;;;;;-143.90;100.00;76423.19;4835298;28;103088;-73
2023/11/29 04:14:12;;;;;;;;;42.50;33.00;;;;;-143.90;100.00;76421.13;4837826;28;103705;-73
2023/11/29 04:16:39;;;;;;;;;64.00;45.00;;;;;-143.90;100.00;76448.00;4836672;28;102654;-73
2023/11/29 04:19:06;;;;;;;;;31.50;21.00;;;;;-143.90;100.00;76452.16;4845899;28;101846;-73
2023/11/29 04:21:35;;;;;;;;;50.50;40.25;;;;;-143.90;100.00;76450.06;4840500;28;102160;-73
2023/11/29 04:24:02;;;;;;;;;41.50;26.50;;;;;-143.90;100.00;76429.41;4832734;28;103532;-72
2023/11/29 04:26:40;;;;;;;;;53.25;41.25;;;;;-143.90;100.00;76450.06;4829116;28;101993;-73
2023/11/29 04:29:09;;;;;;;;;58.25;38.25;;;;;-143.90;100.00;76441.81;4829230;28;101900;-72
2023/11/29 04:31:38;;;;;;;;;40.25;33.50;;;;;-143.90;100.00;76433.53;4830377;28;102034;-73
2023/11/29 04:34:05;;;;;;;;;43.75;35.00;;;;;-143.90;100.00;76431.47;4831376;28;103464;-73
2023/11/29 04:36:44;;;;;;;;;44.50;37.25;;;;;-143.90;100.00;76433.53;4825880;28;102133;-72
2023/11/29 04:39:15;;;;;;;;;51.25;44.50;;;;;-143.90;100.00;76433.53;4826143;28;101998;-74
2023/11/29 04:41:43;;;;;;;;;64.50;42.50;;;;;-143.90;100.00;76433.53;4847316;28;101929;-71
2023/11/29 04:44:09;;;;;;;;;48.00;33.75;;;;;-143.90;100.00;76425.25;4831627;28;107928;-73
2023/11/29 04:46:36;;;;;;;;;40.50;28.25;;;;;-143.90;100.00;76419.06;4819385;28;102893;-72
2023/11/29 04:49:03;;;;;;;;;41.00;31.50;;;;;-143.90;100.00;76404.56;4828941;28;101970;-72
2023/11/29 04:51:30;;;;;;;;;50.50;38.00;;;;;-143.90;100.00;76429.41;4831210;28;102639;-73
2023/11/29 04:53:56;;;;;;;;;28.50;24.50;;;;;-143.90;100.00;76443.88;4828875;28;103247;-72
2023/11/29 04:56:23;;;;;;;;;37.25;27.50;;;;;-143.90;100.00;76462.47;4825817;28;101886;-73
2023/11/29 04:58:50;;;;;;;;;46.00;39.75;;;;;-143.90;100.00;76466.63;4836077;28;102194;-73
2023/11/29 05:01:17;;;;;;;;;45.75;34.25;;;;;-143.90;100.00;76462.47;4826794;28;102139;-73
2023/11/29 05:03:43;;;;;;;;;40.50;32.00;;;;;-143.90;100.00;76458.34;4837524;28;103724;-74
2023/11/29 05:06:10;;;;;;;;;45.50;35.00;;;;;-143.90;100.00;76454.22;4832656;28;101676;-73
2023/11/29 05:08:37;;;;;;;;;38.25;32.75;;;;;-143.90;100.00;76439.75;4832478;28;101913;-73
2023/11/29 05:11:04;;;;;;;;;37.75;25.50;;;;;-143.90;100.00;76439.75;4833492;28;104583;-73
2023/11/29 05:13:31;;;;;;;;;28.75;21.00;;;;;-143.90;100.00;76443.88;4832996;28;103274;-73
2023/11/29 05:15:59;;;;;;;;;42.00;32.75;;;;;-143.90;100.00;76462.47;4837252;28;103207;-73
2023/11/29 05:18:26;;;;;;;;;46.50;32.75;;;;;-143.90;100.00;76474.91;4824133;28;101615;-73
2023/11/29 05:20:53;;;;;;;;;35.50;25.00;;;;;-143.90;100.00;76462.47;4829805;28;101982;-72
2023/11/29 05:23:21;;;;;;;;;48.25;35.00;;;;;-143.90;100.00;76462.47;4830108;28;103406;-72
2023/11/29 05:25:48;;;;;;;;;52.75;31.50;;;;;-143.90;100.00;76466.63;4846575;28;102534;-72
2023/11/29 05:28:14;;;;;;;;;38.00;28.75;;;;;-143.90;100.00;76452.16;4850606;28;102908;-72
2023/11/29 05:30:42;;;;;;;;;39.25;32.00;;;;;-143.90;100.00;76458.34;4848111;28;102025;-73
2023/11/29 05:33:09;;;;;;;;;46.25;36.00;;;;;-143.90;100.00;76456.28;4843203;28;103433;-73
2023/11/29 05:35:36;;;;;;;;;33.75;27.50;;;;;-143.90;100.00;76466.63;4831147;28;101951;-72
2023/11/29 05:38:03;;;;;;;;;45.00;32.00;;;;;-143.90;100.00;76460.41;4827584;28;101923;-72
2023/11/29 05:40:30;;;;;;;;;43.50;29.50;;;;;-143.90;100.00;76458.34;4835201;28;101942;-72
2023/11/29 05:42:57;;;;;;;;;46.25;34.00;;;;;-143.90;100.00;76466.63;4836245;28;103695;-72
2023/11/29 05:45:23;;;;;;;;;29.00;24.75;;;;;-143.90;100.00;76445.94;4837884;28;102244;-71
2023/11/29 05:47:50;;;;;;;;;36.25;29.00;;;;;-143.90;100.00;76443.88;4844015;28;101933;-73
2023/11/29 05:50:17;;;;;;;;;41.50;31.50;;;;;-143.90;100.00;76448.00;4852009;28;101992;-72
2023/11/29 05:52:43;;;;;;;;;24.50;18.25;;;;;-143.90;100.00;76437.66;4852469;28;105292;-73
2023/11/29 05:55:11;;;;;;;;;31.50;30.00;;;;;-143.90;100.00;76456.28;4845965;28;104674;-73
2023/11/29 05:57:38;;;;;;;;;30.00;22.00;;;;;-143.90;100.00;76445.94;4844182;28;101755;-73
2023/11/29 06:00:08;;;;;;;;;35.50;25.50;;;;;-143.90;100.00;76462.47;4845788;28;102220;-73
2023/11/29 06:02:54;;;;;;;;;32.00;28.25;;;;;-143.90;100.00;76470.75;4845104;28;108319;-72
2023/11/29 06:05:21;;;;;;;;;33.50;29.50;;;;;-143.90;100.00;76466.63;4844678;28;101886;-73
2023/11/29 06:07:48;;;;;;;;;27.75;22.50;;;;;-143.90;100.00;76458.34;4851661;28;102094;-72
2023/11/29 06:10:15;;;;;;;;;34.75;29.25;;;;;-143.90;100.00;76458.34;4848007;28;102995;-73
2023/11/29 06:12:42;;;;;;;;;36.00;26.75;;;;;-143.90;100.00;76464.56;4847992;28;103498;-72
2023/11/29 06:15:09;;;;;;;;;34.75;26.75;;;;;-143.90;100.00;76450.06;4844107;28;102335;-72
2023/11/29 06:17:36;;;;;;;;;28.67;18.33;;;;;-143.90;100.00;76439.75;4847686;28;101925;-72
2023/11/29 06:20:15;;;;;;;;;28.33;19.00;;;;;-143.90;100.00;76427.31;4852323;28;102542;-72
2023/11/29 06:22:42;;;;;;;;;19.33;12.33;;;;;-143.90;100.00;76404.56;4851253;28;108302;-72
2023/11/29 06:25:08;;;;;;;;;13.67;11.67;;;;;-143.90;100.00;76419.06;4849628;28;102239;-72
2023/11/29 06:27:35;;;;;;;;;35.00;32.50;;;;;-143.90;100.00;76443.88;4855122;28;102013;-72
2023/11/29 06:30:06;;;;;;;;;34.50;28.25;;;;;-143.90;100.00;76441.81;4844736;28;101918;-72
2023/11/29 06:32:35;;;;;;;;;37.75;27.25;;;;;-143.90;100.00;76450.06;4855475;28;103364;-72
2023/11/29 06:35:02;;;;;;;;;31.00;21.50;;;;;-143.90;100.00;76445.94;4851561;28;101692;-72
2023/11/29 06:37:28;;;;;;;;;22.00;19.00;;;;;-143.90;100.00;76425.25;4844169;28;101905;-71
2023/11/29 06:39:55;;;;;;;;;20.33;19.67;;;;;-143.90;100.00;76439.75;4848916;28;103121;-70
2023/11/29 06:42:22;;;;;;;;;39.00;28.00;;;;;-143.90;100.00;76452.16;4844652;28;103507;-73
2023/11/29 06:44:48;;;;;;;;;33.00;29.00;;;;;-143.90;100.00;76445.94;4856164;28;101942;-73
2023/11/29 06:47:17;;;;;;;;;21.67;18.67;;;;;-143.90;100.00;76437.66;4844801;28;101531;-73
2023/11/29 06:49:44;;;;;;;;;22.00;21.33;;;;;-143.90;100.00;76441.81;4841923;28;102017;-73
2023/11/29 06:52:12;;;;;;;;;44.00;33.25;;;;;-143.90;100.00;76458.34;4843887;28;107995;-73
2023/11/29 06:54:39;;;;;;;;;45.50;34.00;;;;;-143.90;100.00;76454.22;4833790;28;102171;-73
2023/11/29 06:57:06;;;;;;;;;34.67;24.00;;;;;-143.90;100.00;76437.66;4843867;28;102617;-72
2023/11/29 06:59:34;;;;;;;;;20.33;18.00;;;;;-143.90;100.00;76429.41;4836058;28;101932;-72
2023/11/29 07:02:04;;;;;;;;;23.67;16.33;;;;;-143.90;100.00;76406.66;4850024;28;103398;-71
2023/11/29 07:04:32;;;;;;;;;17.33;13.00;;;;;-143.90;100.00;76394.25;4842355;28;101860;-72
2023/11/29 07:06:59;;;;;;;;;15.00;10.00;;;;;-143.90;100.00;76390.09;4834424;28;101707;-72
2023/11/29 07:09:27;;;;;;;;;13.67;11.33;;;;;-143.90;100.00;76373.56;4850965;28;102341;-72
2023/11/29 07:11:54;;;;;;;;;14.67;10.00;;;;;-143.90;100.00;76379.75;4851340;28;103226;-72
2023/11/29 07:14:21;;;;;;;;;45.00;35.75;;;;;-143.90;100.00;76400.44;4848541;28;102001;-72
2023/11/29 07:16:47;;;;;;;;;47.50;29.50;;;;;-143.90;100.00;76385.97;4847206;28;101999;-72
2023/11/29 07:19:14;;;;;;;;;31.00;27.67;;;;;-143.90;100.00;76373.56;4850885;28;102004;-72
2023/11/29 07:21:41;;;;;;;;;22.00;19.00;;;;;-143.90;100.00;76371.50;4846768;28;103632;-72
2023/11/29 07:24:08;;;;;;;;;36.33;25.00;;;;;-143.90;100.00;76385.97;4839639;28;101851;-73
2023/11/29 07:26:34;;;;;;;;;36.25;30.50;;;;;-143.90;100.00;76402.50;4843492;28;102285;-72
2023/11/29 07:29:03;;;;;;;;;28.00;28.00;;;;;-143.90;100.00;76412.84;4840654;28;101625;-72
2023/11/29 07:31:31;;;;;;;;;44.67;32.33;;;;;-143.90;100.00;76445.94;4841527;28;103507;-73
2023/11/29 07:33:59;;;;;;;;;27.33;20.33;;;;;-143.90;100.00;76433.53;4833975;28;101821;-72
2023/11/29 07:36:26;;;;;;;;;33.67;28.67;;;;;-143.90;100.00;76443.88;4839694;28;101973;-73
2023/11/29 07:38:54;;;;;;;;;27.00;22.00;;;;;-143.90;100.00;76423.19;4844031;28;103531;-73
2023/11/29 07:41:22;;;;;;;;;32.00;24.33;;;;;-143.90;100.00;76400.44;4841250;28;103422;-74
2023/11/29 07:43:49;;;;;;;;;18.33;15.67;;;;;-143.90;100.00;76400.44;4833102;28;101809;-73
2023/11/29 07:46:17;;;;;;;;;30.67;21.00;;;;;-143.90;100.00;76385.97;4836998;28;102540;-73
2023/11/29 07:48:44;;;;;;;;;23.33;21.33;;;;;-143.90;100.00;76381.84;4847276;28;101683;-74
2023/11/29 07:51:10;;;;;;;;;34.67;27.33;;;;;-143.90;100.00;76396.31;4841620;28;111066;-72
2023/11/29 07:53:37;;;;;;;;;28.33;24.00;;;;;-143.90;100.00;76421.13;4839631;28;102482;-72
2023/11/29 07:56:04;;;;;;;;;35.33;26.33;;;;;-143.90;100.00;76400.44;4836793;28;101740;-73
2023/11/29 07:58:32;;;;;;;;;26.33;18.00;;;;;-143.90;100.00;76379.75;4843576;28;101724;-71
2023/11/29 08:01:02;;;;;;;;;15.67;15.00;;;;;-143.90;100.00;76361.16;4837918;28;103384;-72
2023/11/29 08:03:29;;;;;;;;;15.33;13.00;;;;;-143.90;100.00;76361.16;4838358;28;101986;-74
2023/11/29 08:05:56;;;;;;;;;23.00;18.00;;;;;-143.90;100.00;76342.53;4840285;28;101533;-73
2023/11/29 08:08:23;;;;;;;;;20.33;16.00;;;;;-143.90;100.00;76342.53;4844202;28;102488;-72
2023/11/29 08:10:49;;;;;;;;;21.33;18.00;;;;;-143.90;100.00;76344.59;4836851;28;103299;-73
2023/11/29 08:13:16;;;;;;;;;23.67;18.33;;;;;-143.90;100.00;76346.69;4839919;28;101846;-74
2023/11/29 08:15:43;;;;;;;;;26.67;22.00;;;;;-143.90;100.00;76354.94;4837508;28;101800;-73
2023/11/29 08:18:10;;;;;;;;;33.67;25.33;;;;;-143.90;100.00;76357.00;4840749;28;101814;-73
2023/11/29 08:20:37;;;;;;;;;28.33;20.33;;;;;-143.90;100.00;76375.63;4834008;28;103320;-73
2023/11/29 08:23:04;;;;;;;;;27.67;24.67;;;;;-143.90;100.00;76373.56;4826118;28;102109;-71
2023/11/29 08:25:30;;;;;;;;;22.00;20.00;;;;;-143.90;100.00;76363.22;4842581;28;102205;-73
2023/11/29 08:27:57;;;;;;;;;27.00;22.00;;;;;-143.90;100.00;76348.75;4824376;28;102140;-73
2023/11/29 08:30:24;;;;;;;;;37.33;28.00;;;;;-143.90;100.00;76357.00;4833649;28;103831;-73
2023/11/29 08:32:51;;;;;;;;;36.00;24.00;;;;;-143.90;100.00;76344.59;4827041;28;102446;-72
2023/11/29 08:35:18;;;;;;;;;45.67;29.00;;;;;-143.90;100.00;76332.19;4832461;28;102018;-72
2023/11/29 08:37:45;;;;;;;;;60.75;40.75;;;;;-143.90;100.00;76321.84;4823624;28;105196;-73
2023/11/29 08:40:11;;;;;;;;;41.33;32.00;;;;;-143.90;100.00;76309.44;4847721;28;107905;-72
2023/11/29 08:42:39;;;;;;;;;46.67;34.00;;;;;-143.90;100.00;76307.38;4826027;28;102544;-73
2023/11/29 08:45:08;;;;;;;;;34.67;23.67;;;;;-143.90;100.00;76292.91;4833345;28;101920;-74
2023/11/29 08:47:35;;;;;;;;;31.67;25.00;;;;;-143.90;100.00;76301.19;4826069;28;102167;-73
2023/11/29 08:50:05;;;;;;;;;29.00;24.67;;;;;-143.90;100.00;76309.44;4828800;28;103140;-73
2023/11/29 08:52:32;;;;;;;;;25.33;16.67;;;;;-143.90;100.00;76307.38;4823221;28;102656;-73
2023/11/29 08:54:59;;;;;;;;;29.00;23.00;;;;;-143.90;100.00;76319.78;4835795;28;102107;-73
2023/11/29 08:57:26;;;;;;;;;22.00;17.33;;;;;-143.90;100.00;76313.59;4830067;28;102769;-73
2023/11/29 08:59:54;;;;;;;;;22.67;17.67;;;;;-143.90;100.00;76313.59;4832690;28;103236;-71
2023/11/29 09:02:22;;;;;;;;;19.33;16.00;;;;;-143.90;100.00;76297.03;4844685;28;101758;-71
2023/11/29 09:04:50;;;;;;;;;20.00;19.00;;;;;-143.90;100.00;76305.31;4831014;28;102150;-70
2023/11/29 09:07:17;;;;;;;;;18.00;14.33;;;;;-143.90;100.00;76305.31;4829101;28;102401;-73
2023/11/29 09:09:45;;;;;;;;;18.33;16.33;;;;;-143.90;100.00;76301.19;4832727;28;102625;-72
2023/11/29 09:12:12;;;;;;;;;27.00;19.33;;;;;-143.90;100.00;76299.09;4827643;28;102021;-73
2023/11/29 09:14:39;;;;;;;;;25.67;19.33;;;;;-143.90;100.00;76313.59;4829656;28;102141;-71
2023/11/29 09:17:06;;;;;;;;;22.00;18.33;;;;;-143.90;100.00;76297.03;4826431;28;102195;-73
2023/11/29 09:19:34;;;;;;;;;15.67;13.67;;;;;-143.90;100.00;76294.97;4829762;28;104010;-74
2023/11/29 09:22:03;;;;;;;;;33.00;24.00;;;;;-143.90;100.00;76307.38;4841378;28;101968;-74
2023/11/29 09:24:30;;;;;;;;;29.00;24.67;;;;;-143.90;100.00;76328.06;4848577;28;102198;-72
2023/11/29 09:26:57;;;;;;;;;33.33;22.00;;;;;-143.90;100.00;76305.31;4843213;28;101987;-72
2023/11/29 09:29:28;;;;;;;;;26.00;23.00;;;;;-143.90;100.00;76290.84;4844097;28;103647;-73
2023/11/29 09:31:55;;;;;;;;;30.00;22.33;;;;;-143.90;100.00;76284.63;4839471;28;105330;-73
2023/11/29 09:34:22;;;;;;;;;44.33;31.67;;;;;-143.90;100.00;76303.25;4836503;28;101858;-72
2023/11/29 09:36:50;;;;;;;;;38.67;31.33;;;;;-143.90;100.00;76305.31;4840789;28;102057;-72
2023/11/29 09:39:17;;;;;;;;;59.00;42.67;;;;;-143.90;100.00;76336.34;4847607;28;103171;-73
2023/11/29 09:41:45;;;;;;;;;40.67;32.33;;;;;-143.90;100.00;76309.44;4846123;28;102005;-73
2023/11/29 09:44:13;;;;;;;;;30.33;21.67;;;;;-143.90;100.00;76292.91;4846529;28;102124;-71
2023/11/29 09:46:41;;;;;;;;;42.67;35.00;;;;;-143.90;100.00;76292.91;4846776;28;101905;-73
2023/11/29 09:49:10;;;;;;;;;41.33;29.67;;;;;-143.90;100.00;76280.50;4842713;28;103478;-73
2023/11/29 09:51:37;;;;;;;;;24.67;21.00;;;;;-143.90;100.00;76263.97;4840219;28;102391;-73
2023/11/29 09:54:04;;;;;;;;;24.67;21.00;;;;;-143.90;100.00;76251.53;4842802;28;101586;-73
2023/11/29 09:56:31;;;;;;;;;27.33;17.33;;;;;-143.90;100.00;76239.13;4836859;28;101870;-73
2023/11/29 09:58:58;;;;;;;;;24.33;22.33;;;;;-143.90;100.00;76239.13;4857713;28;103779;-73
2023/11/29 10:01:26;;;;;;;;;25.00;19.67;;;;;-143.90;100.00;76249.47;4844738;28;102426;-73
2023/11/29 10:04:04;;;;;;;;;21.33;19.67;;;;;-143.90;100.00;76249.47;4841406;28;102230;-73
2023/11/29 10:06:32;;;;;;;;;35.33;25.33;;;;;-143.90;100.00;76245.34;4840188;28;102018;-73
2023/11/29 10:09:05;;;;;;;;;27.33;18.33;;;;;-143.90;100.00;76214.31;4844768;28;103335;-73
2023/11/29 10:11:32;;;;;;;;;25.33;18.33;;;;;-143.90;100.00;76201.91;4845819;28;101681;-74
2023/11/29 10:13:59;;;;;;;;;19.00;16.00;;;;;-143.90;100.00;76206.06;4837631;28;101805;-72
2023/11/29 10:16:29;;;;;;;;;16.67;16.00;;;;;-143.90;100.00;76189.50;4846425;28;103376;-72
2023/11/29 10:18:56;;;;;;;;;39.33;26.00;;;;;-143.90;100.00;76230.88;4829051;28;103470;-72
2023/11/29 10:21:23;;;;;;;;;35.33;27.67;;;;;-143.90;100.00;76249.47;4846241;28;102389;-73
2023/11/29 10:23:50;;;;;;;;;35.00;25.67;;;;;-143.90;100.00;76268.09;4842919;28;103095;-73
2023/11/29 10:26:17;;;;;;;;;29.33;26.67;;;;;-143.90;100.00;76241.22;4836273;28;101994;-72
2023/11/29 10:28:44;;;;;;;;;25.67;20.33;;;;;-143.90;100.00;76210.19;4845843;28;103834;-72
2023/11/29 10:31:10;;;;;;;;;22.00;18.33;;;;;-143.90;100.00;76206.06;4840979;28;101824;-72
2023/11/29 10:33:41;;;;;;;;;18.67;10.00;;;;;-143.90;100.00;76199.84;4833569;28;101693;-72
2023/11/29 10:36:09;;;;;;;;;22.33;18.00;;;;;-143.90;100.00;76203.97;4841413;28;102887;-72
2023/11/29 10:38:54;;;;;;;;;21.33;17.33;;;;;-143.90;100.00;76203.97;4842965;28;103531;-72
2023/11/29 10:41:23;;;;;;;;;30.67;22.00;;;;;-143.90;100.00;76228.81;4843681;28;102323;-72
2023/11/29 10:43:53;;;;;;;;;34.67;24.67;;;;;-143.90;100.00;76224.66;4848439;28;101896;-72
2023/11/29 10:46:25;;;;;;;;;22.67;18.67;;;;;-143.90;100.00;76235.00;4845655;28;102173;-72
2023/11/29 10:49:02;;;;;;;;;24.33;21.33;;;;;-143.90;100.00;76247.41;4844897;28;103369;-72